aviador You're here:

KRDR Decoded Metar

RED RIVER in ND, USA
Report Time2018-06-19 07:56:00
UTC Time2018-06-19 08:07:03
Flight Rules vfr VFR
WindCalm
Visibility9999 m
Phenomena:N/A
Clouds:N/A
Expected CloudBase > 1,600 ft AGL from Temp-Dew spread
CeilingNone
Temp16°C (ISA +3)
Dew Point12°C (77% RH)
QNH1019 hPa
Density Alt1,234 ft
Elevation912 ft
Report Wrong Elevation
Raw Report
KRDR 190756Z AUTO 00000KT 10SM CLR 16/12 A3008 RMK AO2 SLP189
T01620118 $=

Extra information for KRDR:More info

Metar Taf Metar & Taf Last 4 Metars F.Rules Stats Wind Profile Meteogram Temp Stats Airport Information Weather charts Add Link Nearby VenuesMetar ALERT Operation Metar Decoded Social comments

AIRNAV info for KRDR